sensor_id;sensor_type;location;lat;lon;timestamp;temperature;humidity
58153;DHT22;43967;51.634;5.566;2023-05-07T00:00:31;20.70;62.40
58153;DHT22;43967;51.634;5.566;2023-05-07T00:05:52;20.70;62.40
58153;DHT22;43967;51.634;5.566;2023-05-07T00:11:14;20.60;62.30
58153;DHT22;43967;51.634;5.566;2023-05-07T00:16:35;20.70;62.50
58153;DHT22;43967;51.634;5.566;2023-05-07T00:21:56;20.60;62.40
58153;DHT22;43967;51.634;5.566;2023-05-07T00:27:18;20.60;62.30
58153;DHT22;43967;51.634;5.566;2023-05-07T00:32:39;20.60;62.40
58153;DHT22;43967;51.634;5.566;2023-05-07T00:38:00;20.60;62.30
58153;DHT22;43967;51.634;5.566;2023-05-07T00:43:21;20.60;62.30
58153;DHT22;43967;51.634;5.566;2023-05-07T00:48:43;20.60;62.40
58153;DHT22;43967;51.634;5.566;2023-05-07T00:54:04;20.60;62.30
58153;DHT22;43967;51.634;5.566;2023-05-07T00:59:25;20.60;62.30
58153;DHT22;43967;51.634;5.566;2023-05-07T01:04:47;20.60;62.30
58153;DHT22;43967;51.634;5.566;2023-05-07T01:10:09;20.50;62.30
58153;DHT22;43967;51.634;5.566;2023-05-07T01:15:31;20.50;62.30
58153;DHT22;43967;51.634;5.566;2023-05-07T01:20:52;20.50;62.30
58153;DHT22;43967;51.634;5.566;2023-05-07T01:26:13;20.50;62.40
58153;DHT22;43967;51.634;5.566;2023-05-07T01:31:35;20.50;62.30
58153;DHT22;43967;51.634;5.566;2023-05-07T01:36:58;20.50;62.30
58153;DHT22;43967;51.634;5.566;2023-05-07T01:42:20;20.50;62.30
58153;DHT22;43967;51.634;5.566;2023-05-07T01:47:42;20.50;62.20
58153;DHT22;43967;51.634;5.566;2023-05-07T01:53:04;20.50;62.30
58153;DHT22;43967;51.634;5.566;2023-05-07T01:58:26;20.50;62.30
58153;DHT22;43967;51.634;5.566;2023-05-07T02:03:47;20.50;62.30
58153;DHT22;43967;51.634;5.566;2023-05-07T02:09:08;20.50;62.30
58153;DHT22;43967;51.634;5.566;2023-05-07T02:14:29;20.50;62.40
58153;DHT22;43967;51.634;5.566;2023-05-07T02:19:51;20.50;62.30
58153;DHT22;43967;51.634;5.566;2023-05-07T02:25:12;20.50;62.40
58153;DHT22;43967;51.634;5.566;2023-05-07T02:30:33;20.40;62.30
58153;DHT22;43967;51.634;5.566;2023-05-07T02:35:55;20.40;62.30
58153;DHT22;43967;51.634;5.566;2023-05-07T02:41:16;20.40;62.30
58153;DHT22;43967;51.634;5.566;2023-05-07T02:46:37;20.40;62.40
58153;DHT22;43967;51.634;5.566;2023-05-07T02:51:58;20.40;62.30
58153;DHT22;43967;51.634;5.566;2023-05-07T02:57:20;20.40;62.30
58153;DHT22;43967;51.634;5.566;2023-05-07T03:02:41;20.40;62.30
58153;DHT22;43967;51.634;5.566;2023-05-07T03:08:03;20.40;62.30
58153;DHT22;43967;51.634;5.566;2023-05-07T03:13:24;20.40;62.30
58153;DHT22;43967;51.634;5.566;2023-05-07T03:18:45;20.40;62.30
58153;DHT22;43967;51.634;5.566;2023-05-07T03:24:06;20.30;62.30
58153;DHT22;43967;51.634;5.566;2023-05-07T03:29:28;20.30;62.30
58153;DHT22;43967;51.634;5.566;2023-05-07T03:34:49;20.30;62.30
58153;DHT22;43967;51.634;5.566;2023-05-07T03:40:11;20.30;62.30
58153;DHT22;43967;51.634;5.566;2023-05-07T03:45:32;20.40;62.40
58153;DHT22;43967;51.634;5.566;2023-05-07T03:50:53;20.30;62.30
58153;DHT22;43967;51.634;5.566;2023-05-07T03:56:14;20.40;62.40
58153;DHT22;43967;51.634;5.566;2023-05-07T04:01:36;20.30;62.10
58153;DHT22;43967;51.634;5.566;2023-05-07T04:06:57;20.30;62.30
58153;DHT22;43967;51.634;5.566;2023-05-07T04:12:18;20.30;62.30
58153;DHT22;43967;51.634;5.566;2023-05-07T04:17:40;20.40;62.40
58153;DHT22;43967;51.634;5.566;2023-05-07T04:23:01;20.30;62.30
58153;DHT22;43967;51.634;5.566;2023-05-07T04:28:22;20.30;62.30
58153;DHT22;43967;51.634;5.566;2023-05-07T04:33:44;20.30;62.40
58153;DHT22;43967;51.634;5.566;2023-05-07T04:39:05;20.30;62.40
58153;DHT22;43967;51.634;5.566;2023-05-07T04:44:26;20.30;62.40
58153;DHT22;43967;51.634;5.566;2023-05-07T04:49:47;20.30;62.40
58153;DHT22;43967;51.634;5.566;2023-05-07T04:55:09;20.30;62.50
58153;DHT22;43967;51.634;5.566;2023-05-07T05:00:30;20.30;62.30
58153;DHT22;43967;51.634;5.566;2023-05-07T05:05:52;20.30;62.40
58153;DHT22;43967;51.634;5.566;2023-05-07T05:11:13;20.30;62.50
58153;DHT22;43967;51.634;5.566;2023-05-07T05:16:35;20.30;62.40
58153;DHT22;43967;51.634;5.566;2023-05-07T05:21:56;20.30;62.40
58153;DHT22;43967;51.634;5.566;2023-05-07T05:27:17;20.30;62.40
58153;DHT22;43967;51.634;5.566;2023-05-07T05:32:38;20.30;62.50
58153;DHT22;43967;51.634;5.566;2023-05-07T05:38:00;20.30;62.50
58153;DHT22;43967;51.634;5.566;2023-05-07T05:43:21;20.20;62.50
58153;DHT22;43967;51.634;5.566;2023-05-07T05:48:42;20.30;62.50
58153;DHT22;43967;51.634;5.566;2023-05-07T05:54:03;20.30;62.50
58153;DHT22;43967;51.634;5.566;2023-05-07T05:59:25;20.20;63.10
58153;DHT22;43967;51.634;5.566;2023-05-07T06:04:46;20.30;62.50
58153;DHT22;43967;51.634;5.566;2023-05-07T06:10:07;20.20;62.50
58153;DHT22;43967;51.634;5.566;2023-05-07T06:15:29;20.20;62.50
58153;DHT22;43967;51.634;5.566;2023-05-07T06:20:51;20.20;62.50
58153;DHT22;43967;51.634;5.566;2023-05-07T06:26:13;20.20;62.50
58153;DHT22;43967;51.634;5.566;2023-05-07T06:31:34;20.20;62.50
58153;DHT22;43967;51.634;5.566;2023-05-07T06:36:55;20.30;62.60
58153;DHT22;43967;51.634;5.566;2023-05-07T06:42:16;20.30;62.60
58153;DHT22;43967;51.634;5.566;2023-05-07T06:47:38;20.30;62.60
58153;DHT22;43967;51.634;5.566;2023-05-07T06:52:59;20.20;62.50
58153;DHT22;43967;51.634;5.566;2023-05-07T06:58:20;20.20;62.50
58153;DHT22;43967;51.634;5.566;2023-05-07T07:03:41;20.20;62.50
58153;DHT22;43967;51.634;5.566;2023-05-07T07:09:03;20.30;62.60
58153;DHT22;43967;51.634;5.566;2023-05-07T07:14:24;20.20;62.60
58153;DHT22;43967;51.634;5.566;2023-05-07T07:19:45;20.30;62.70
58153;DHT22;43967;51.634;5.566;2023-05-07T07:25:07;20.30;62.60
58153;DHT22;43967;51.634;5.566;2023-05-07T07:30:55;20.30;62.70
58153;DHT22;43967;51.634;5.566;2023-05-07T07:36:17;20.30;62.70
58153;DHT22;43967;51.634;5.566;2023-05-07T07:41:38;20.30;62.70
58153;DHT22;43967;51.634;5.566;2023-05-07T07:46:59;20.30;62.80
58153;DHT22;43967;51.634;5.566;2023-05-07T07:52:21;20.30;64.00
58153;DHT22;43967;51.634;5.566;2023-05-07T07:57:42;20.30;65.80
58153;DHT22;43967;51.634;5.566;2023-05-07T08:03:03;20.40;66.60
58153;DHT22;43967;51.634;5.566;2023-05-07T08:08:24;20.40;66.80
58153;DHT22;43967;51.634;5.566;2023-05-07T08:13:46;20.40;67.10
58153;DHT22;43967;51.634;5.566;2023-05-07T08:19:07;20.40;67.30
58153;DHT22;43967;51.634;5.566;2023-05-07T08:24:29;20.40;67.60
58153;DHT22;43967;51.634;5.566;2023-05-07T08:29:50;20.40;67.70
58153;DHT22;43967;51.634;5.566;2023-05-07T08:35:11;20.50;67.70
58153;DHT22;43967;51.634;5.566;2023-05-07T08:40:37;20.50;67.80
58153;DHT22;43967;51.634;5.566;2023-05-07T08:46:01;20.50;67.60
58153;DHT22;43967;51.634;5.566;2023-05-07T08:51:22;20.50;67.50
58153;DHT22;43967;51.634;5.566;2023-05-07T08:56:43;20.50;67.50
58153;DHT22;43967;51.634;5.566;2023-05-07T09:02:06;20.50;67.50
58153;DHT22;43967;51.634;5.566;2023-05-07T09:07:30;20.60;67.50
58153;DHT22;43967;51.634;5.566;2023-05-07T09:12:51;20.60;67.60
58153;DHT22;43967;51.634;5.566;2023-05-07T09:18:13;20.60;67.50
58153;DHT22;43967;51.634;5.566;2023-05-07T09:23:34;20.60;67.30
58153;DHT22;43967;51.634;5.566;2023-05-07T09:28:55;20.60;67.30
58153;DHT22;43967;51.634;5.566;2023-05-07T09:34:17;20.60;67.30
58153;DHT22;43967;51.634;5.566;2023-05-07T09:39:42;20.60;67.50
58153;DHT22;43967;51.634;5.566;2023-05-07T09:45:05;20.60;67.90
58153;DHT22;43967;51.634;5.566;2023-05-07T09:50:34;20.60;67.90
58153;DHT22;43967;51.634;5.566;2023-05-07T09:55:57;20.70;68.10
58153;DHT22;43967;51.634;5.566;2023-05-07T10:01:19;20.60;68.30
58153;DHT22;43967;51.634;5.566;2023-05-07T10:06:42;20.70;68.70
58153;DHT22;43967;51.634;5.566;2023-05-07T10:12:05;20.70;68.70
58153;DHT22;43967;51.634;5.566;2023-05-07T10:17:27;20.70;69.70
58153;DHT22;43967;51.634;5.566;2023-05-07T10:22:49;20.70;69.30
58153;DHT22;43967;51.634;5.566;2023-05-07T10:28:12;20.70;69.30
58153;DHT22;43967;51.634;5.566;2023-05-07T10:33:34;20.70;69.10
58153;DHT22;43967;51.634;5.566;2023-05-07T10:38:57;20.70;69.10
58153;DHT22;43967;51.634;5.566;2023-05-07T10:44:28;20.80;69.10
58153;DHT22;43967;51.634;5.566;2023-05-07T11:06:15;20.80;70.30
58153;DHT22;43967;51.634;5.566;2023-05-07T11:11:49;20.80;70.60
58153;DHT22;43967;51.634;5.566;2023-05-07T11:17:12;20.80;70.70
58153;DHT22;43967;51.634;5.566;2023-05-07T11:27:55;20.90;70.60
58153;DHT22;43967;51.634;5.566;2023-05-07T11:33:17;20.90;70.50
58153;DHT22;43967;51.634;5.566;2023-05-07T11:38:39;20.90;70.40
58153;DHT22;43967;51.634;5.566;2023-05-07T11:44:00;21.00;70.40
58153;DHT22;43967;51.634;5.566;2023-05-07T11:49:25;20.90;70.10
58153;DHT22;43967;51.634;5.566;2023-05-07T11:54:58;20.90;70.00
58153;DHT22;43967;51.634;5.566;2023-05-07T12:00:19;21.00;70.00
58153;DHT22;43967;51.634;5.566;2023-05-07T12:05:40;21.00;69.90
58153;DHT22;43967;51.634;5.566;2023-05-07T12:11:02;21.00;69.70
58153;DHT22;43967;51.634;5.566;2023-05-07T12:16:23;21.00;69.60
58153;DHT22;43967;51.634;5.566;2023-05-07T12:21:44;21.00;69.50
58153;DHT22;43967;51.634;5.566;2023-05-07T12:27:06;21.00;69.30
58153;DHT22;43967;51.634;5.566;2023-05-07T12:32:27;21.00;69.20
58153;DHT22;43967;51.634;5.566;2023-05-07T12:37:58;21.00;69.10
58153;DHT22;43967;51.634;5.566;2023-05-07T12:43:20;21.00;69.00
58153;DHT22;43967;51.634;5.566;2023-05-07T12:48:45;21.00;68.90
58153;DHT22;43967;51.634;5.566;2023-05-07T12:54:06;21.00;68.90
58153;DHT22;43967;51.634;5.566;2023-05-07T12:59:38;21.00;68.80
58153;DHT22;43967;51.634;5.566;2023-05-07T13:04:59;21.00;68.70
58153;DHT22;43967;51.634;5.566;2023-05-07T13:10:22;21.00;68.70
58153;DHT22;43967;51.634;5.566;2023-05-07T13:15:44;21.00;68.60
58153;DHT22;43967;51.634;5.566;2023-05-07T13:21:05;21.00;68.50
58153;DHT22;43967;51.634;5.566;2023-05-07T13:26:26;21.00;68.40
58153;DHT22;43967;51.634;5.566;2023-05-07T13:31:47;21.00;68.40
58153;DHT22;43967;51.634;5.566;2023-05-07T13:37:09;21.00;68.30
58153;DHT22;43967;51.634;5.566;2023-05-07T13:42:30;21.00;67.70
58153;DHT22;43967;51.634;5.566;2023-05-07T13:47:51;21.00;67.50
58153;DHT22;43967;51.634;5.566;2023-05-07T13:53:13;21.00;67.40
58153;DHT22;43967;51.634;5.566;2023-05-07T13:58:34;20.90;67.30
58153;DHT22;43967;51.634;5.566;2023-05-07T14:03:56;21.00;67.80
58153;DHT22;43967;51.634;5.566;2023-05-07T14:09:17;21.00;67.90
58153;DHT22;43967;51.634;5.566;2023-05-07T14:14:38;21.00;67.90
58153;DHT22;43967;51.634;5.566;2023-05-07T14:19:59;21.00;67.90
58153;DHT22;43967;51.634;5.566;2023-05-07T14:25:21;21.00;67.90
58153;DHT22;43967;51.634;5.566;2023-05-07T14:30:42;21.00;67.90
58153;DHT22;43967;51.634;5.566;2023-05-07T14:36:03;21.00;68.10
58153;DHT22;43967;51.634;5.566;2023-05-07T14:41:25;21.00;68.40
58153;DHT22;43967;51.634;5.566;2023-05-07T14:46:46;21.00;68.60
58153;DHT22;43967;51.634;5.566;2023-05-07T14:52:08;21.00;68.60
58153;DHT22;43967;51.634;5.566;2023-05-07T14:57:30;21.00;68.70
58153;DHT22;43967;51.634;5.566;2023-05-07T15:02:51;21.00;68.80
58153;DHT22;43967;51.634;5.566;2023-05-07T15:08:12;21.00;68.80
58153;DHT22;43967;51.634;5.566;2023-05-07T15:13:34;21.00;69.10
58153;DHT22;43967;51.634;5.566;2023-05-07T15:18:55;20.90;68.90
58153;DHT22;43967;51.634;5.566;2023-05-07T15:24:16;20.90;68.80
58153;DHT22;43967;51.634;5.566;2023-05-07T15:29:37;20.90;68.90
58153;DHT22;43967;51.634;5.566;2023-05-07T15:34:59;21.00;69.70
58153;DHT22;43967;51.634;5.566;2023-05-07T15:40:20;21.00;70.20
58153;DHT22;43967;51.634;5.566;2023-05-07T15:45:42;21.00;70.70
58153;DHT22;43967;51.634;5.566;2023-05-07T15:51:04;21.00;70.90
58153;DHT22;43967;51.634;5.566;2023-05-07T15:56:25;21.00;71.20
58153;DHT22;43967;51.634;5.566;2023-05-07T16:01:46;21.00;70.00
58153;DHT22;43967;51.634;5.566;2023-05-07T16:07:07;21.00;69.90
58153;DHT22;43967;51.634;5.566;2023-05-07T16:12:29;21.00;70.80
58153;DHT22;43967;51.634;5.566;2023-05-07T16:17:50;21.00;70.50
58153;DHT22;43967;51.634;5.566;2023-05-07T16:23:11;21.00;71.90
58153;DHT22;43967;51.634;5.566;2023-05-07T16:28:33;21.10;72.80
58153;DHT22;43967;51.634;5.566;2023-05-07T16:33:54;21.10;73.10
58153;DHT22;43967;51.634;5.566;2023-05-07T16:39:15;21.00;73.50
58153;DHT22;43967;51.634;5.566;2023-05-07T16:44:36;21.10;73.80
58153;DHT22;43967;51.634;5.566;2023-05-07T16:49:58;21.10;73.80
58153;DHT22;43967;51.634;5.566;2023-05-07T16:55:19;21.10;73.70
58153;DHT22;43967;51.634;5.566;2023-05-07T17:00:40;21.10;73.90
58153;DHT22;43967;51.634;5.566;2023-05-07T17:06:02;21.10;74.00
58153;DHT22;43967;51.634;5.566;2023-05-07T17:11:23;21.10;73.60
58153;DHT22;43967;51.634;5.566;2023-05-07T17:16:44;21.10;73.90
58153;DHT22;43967;51.634;5.566;2023-05-07T17:22:06;21.10;73.90
58153;DHT22;43967;51.634;5.566;2023-05-07T17:27:27;21.10;74.30
58153;DHT22;43967;51.634;5.566;2023-05-07T17:32:48;21.10;74.40
58153;DHT22;43967;51.634;5.566;2023-05-07T17:38:09;21.10;75.30
58153;DHT22;43967;51.634;5.566;2023-05-07T17:43:31;21.10;74.60
58153;DHT22;43967;51.634;5.566;2023-05-07T17:48:52;21.10;74.60
58153;DHT22;43967;51.634;5.566;2023-05-07T17:54:13;21.10;74.20
58153;DHT22;43967;51.634;5.566;2023-05-07T17:59:35;21.10;74.40
58153;DHT22;43967;51.634;5.566;2023-05-07T18:04:56;21.20;74.00
58153;DHT22;43967;51.634;5.566;2023-05-07T18:10:18;21.10;74.10
58153;DHT22;43967;51.634;5.566;2023-05-07T18:15:39;21.10;74.20
58153;DHT22;43967;51.634;5.566;2023-05-07T18:21:01;21.10;74.40
58153;DHT22;43967;51.634;5.566;2023-05-07T18:26:22;21.10;74.60
58153;DHT22;43967;51.634;5.566;2023-05-07T18:31:43;21.20;74.90
58153;DHT22;43967;51.634;5.566;2023-05-07T18:37:05;21.30;74.90
58153;DHT22;43967;51.634;5.566;2023-05-07T18:42:26;21.30;75.00
58153;DHT22;43967;51.634;5.566;2023-05-07T18:47:47;21.40;75.20
58153;DHT22;43967;51.634;5.566;2023-05-07T18:53:08;21.40;75.20
58153;DHT22;43967;51.634;5.566;2023-05-07T18:58:30;21.40;75.20
58153;DHT22;43967;51.634;5.566;2023-05-07T19:03:51;21.50;75.30
58153;DHT22;43967;51.634;5.566;2023-05-07T19:09:12;21.50;75.30
58153;DHT22;43967;51.634;5.566;2023-05-07T19:14:33;21.60;75.40
58153;DHT22;43967;51.634;5.566;2023-05-07T19:19:55;21.60;75.30
58153;DHT22;43967;51.634;5.566;2023-05-07T19:25:16;21.70;75.20
58153;DHT22;43967;51.634;5.566;2023-05-07T19:30:38;21.70;75.10
58153;DHT22;43967;51.634;5.566;2023-05-07T19:35:59;21.80;75.10
58153;DHT22;43967;51.634;5.566;2023-05-07T19:41:21;21.80;75.40
58153;DHT22;43967;51.634;5.566;2023-05-07T19:46:42;21.80;75.40
58153;DHT22;43967;51.634;5.566;2023-05-07T19:52:03;21.80;75.50
58153;DHT22;43967;51.634;5.566;2023-05-07T19:57:25;21.90;75.50
58153;DHT22;43967;51.634;5.566;2023-05-07T20:02:46;21.90;75.40
58153;DHT22;43967;51.634;5.566;2023-05-07T20:08:08;21.90;75.30
58153;DHT22;43967;51.634;5.566;2023-05-07T20:13:29;21.90;75.10
58153;DHT22;43967;51.634;5.566;2023-05-07T20:18:50;21.90;74.90
58153;DHT22;43967;51.634;5.566;2023-05-07T20:24:11;21.80;74.60
58153;DHT22;43967;51.634;5.566;2023-05-07T20:29:33;21.80;74.40
58153;DHT22;43967;51.634;5.566;2023-05-07T20:34:54;21.80;74.10
58153;DHT22;43967;51.634;5.566;2023-05-07T20:40:15;21.80;73.80
58153;DHT22;43967;51.634;5.566;2023-05-07T20:45:37;21.80;73.50
58153;DHT22;43967;51.634;5.566;2023-05-07T20:50:59;21.80;73.30
58153;DHT22;43967;51.634;5.566;2023-05-07T20:56:21;21.80;73.00
58153;DHT22;43967;51.634;5.566;2023-05-07T21:01:42;21.80;72.80
58153;DHT22;43967;51.634;5.566;2023-05-07T21:07:03;21.70;72.50
58153;DHT22;43967;51.634;5.566;2023-05-07T21:12:24;21.70;72.40
58153;DHT22;43967;51.634;5.566;2023-05-07T21:17:46;21.70;72.20
58153;DHT22;43967;51.634;5.566;2023-05-07T21:23:07;21.70;72.00
58153;DHT22;43967;51.634;5.566;2023-05-07T21:28:28;21.70;71.90
58153;DHT22;43967;51.634;5.566;2023-05-07T21:33:51;21.70;71.70
58153;DHT22;43967;51.634;5.566;2023-05-07T21:39:13;21.60;71.50
58153;DHT22;43967;51.634;5.566;2023-05-07T21:44:34;21.60;71.40
58153;DHT22;43967;51.634;5.566;2023-05-07T21:49:55;21.60;71.30
58153;DHT22;43967;51.634;5.566;2023-05-07T21:55:17;21.60;71.10
58153;DHT22;43967;51.634;5.566;2023-05-07T22:00:38;21.60;71.00
58153;DHT22;43967;51.634;5.566;2023-05-07T22:06:00;21.60;70.90
58153;DHT22;43967;51.634;5.566;2023-05-07T22:11:21;21.60;70.90
58153;DHT22;43967;51.634;5.566;2023-05-07T22:16:42;21.50;70.60
58153;DHT22;43967;51.634;5.566;2023-05-07T22:22:04;21.50;70.40
58153;DHT22;43967;51.634;5.566;2023-05-07T22:27:25;21.50;70.30
58153;DHT22;43967;51.634;5.566;2023-05-07T22:32:46;21.50;70.20
58153;DHT22;43967;51.634;5.566;2023-05-07T22:38:07;21.50;70.10
58153;DHT22;43967;51.634;5.566;2023-05-07T22:43:29;21.50;70.00
58153;DHT22;43967;51.634;5.566;2023-05-07T22:48:50;21.40;69.90
58153;DHT22;43967;51.634;5.566;2023-05-07T22:54:11;21.40;69.80
58153;DHT22;43967;51.634;5.566;2023-05-07T22:59:32;21.40;69.70
58153;DHT22;43967;51.634;5.566;2023-05-07T23:04:54;21.40;69.70
58153;DHT22;43967;51.634;5.566;2023-05-07T23:10:15;21.40;69.60
58153;DHT22;43967;51.634;5.566;2023-05-07T23:15:36;21.40;69.50
58153;DHT22;43967;51.634;5.566;2023-05-07T23:20:58;21.40;69.40
58153;DHT22;43967;51.634;5.566;2023-05-07T23:26:19;21.40;69.30
58153;DHT22;43967;51.634;5.566;2023-05-07T23:31:40;21.40;69.30
58153;DHT22;43967;51.634;5.566;2023-05-07T23:37:02;21.40;69.20
58153;DHT22;43967;51.634;5.566;2023-05-07T23:42:23;21.40;69.30
58153;DHT22;43967;51.634;5.566;2023-05-07T23:47:44;21.40;69.10
58153;DHT22;43967;51.634;5.566;2023-05-07T23:53:06;21.40;69.10
58153;DHT22;43967;51.634;5.566;2023-05-07T23:58:27;21.30;69.00
